Time;durP1;ratioP1;P1;durP2;ratioP2;P2;SDS_P1;SDS_P2;PMS_P1;PMS_P2;Temp;Humidity;BMP_temperature;BMP_pressure;BME280_temperature;BME280_humidity;BME280_pressure;Samples;Min_cycle;Max_cycle;Signal;HPM_P1;HPM_P2
2023/06/09 00:00:55;;;;;;;29.33;27.53;;;;;;;;;;5075532;28;20451;-77
2023/06/09 00:03:23;;;;;;;27.40;25.80;;;;;;;;;;5075869;28;20454;-77
2023/06/09 00:05:50;;;;;;;29.17;27.23;;;;;;;;;;5075250;28;20450;-77
2023/06/09 00:08:18;;;;;;;29.10;27.30;;;;;;;;;;5075512;28;20495;-77
2023/06/09 00:10:45;;;;;;;28.63;26.87;;;;;;;;;;5075001;28;20552;-78
2023/06/09 00:13:12;;;;;;;29.30;27.50;;;;;;;;;;5075884;28;20499;-78
2023/06/09 00:15:39;;;;;;;28.53;26.87;;;;;;;;;;5075962;28;20507;-77
2023/06/09 00:18:06;;;;;;;30.73;28.73;;;;;;;;;;5076612;28;20912;-77
2023/06/09 00:20:35;;;;;;;29.83;27.83;;;;;;;;;;5076213;28;20470;-77
2023/06/09 00:23:02;;;;;;;29.03;27.23;;;;;;;;;;5076606;28;20450;-77
2023/06/09 00:25:29;;;;;;;30.27;28.17;;;;;;;;;;5076035;28;20449;-77
2023/06/09 00:27:56;;;;;;;28.97;27.27;;;;;;;;;;5076870;28;20926;-76
2023/06/09 00:30:23;;;;;;;30.53;28.43;;;;;;;;;;5076927;28;20455;-76
2023/06/09 00:32:51;;;;;;;29.13;27.13;;;;;;;;;;5083992;28;20428;-77
2023/06/09 00:35:18;;;;;;;31.10;29.20;;;;;;;;;;5076440;28;20497;-77
2023/06/09 00:37:48;;;;;;;30.60;28.20;;;;;;;;;;5076019;28;20495;-77
2023/06/09 00:40:15;;;;;;;29.63;27.83;;;;;;;;;;5075758;28;20497;-76
2023/06/09 00:42:43;;;;;;;29.90;27.77;;;;;;;;;;5076068;28;20428;-77
2023/06/09 00:45:10;;;;;;;29.03;27.27;;;;;;;;;;5076717;28;20458;-77
2023/06/09 00:47:37;;;;;;;28.90;27.10;;;;;;;;;;5075723;28;20459;-76
2023/06/09 00:50:04;;;;;;;29.93;28.03;;;;;;;;;;5076147;28;20978;-76
2023/06/09 00:52:32;;;;;;;28.37;26.67;;;;;;;;;;5078209;28;20504;-77
2023/06/09 00:55:02;;;;;;;29.10;27.10;;;;;;;;;;5076057;28;20461;-77
2023/06/09 00:57:33;;;;;;;29.17;27.27;;;;;;;;;;5075591;28;20428;-77
2023/06/09 01:00:00;;;;;;;29.80;27.70;;;;;;;;;;5075658;28;20896;-76
2023/06/09 01:02:28;;;;;;;29.30;27.40;;;;;;;;;;5074943;28;20442;-79
2023/06/09 01:04:55;;;;;;;29.53;27.27;;;;;;;;;;5085155;28;20476;-78
2023/06/09 01:07:28;;;;;;;29.23;27.63;;;;;;;;;;5081233;28;20933;-78
2023/06/09 01:09:59;;;;;;;29.70;27.80;;;;;;;;;;5074684;28;21019;-77
2023/06/09 01:12:32;;;;;;;29.53;27.63;;;;;;;;;;5075123;28;20438;-78
2023/06/09 01:15:03;;;;;;;29.83;27.97;;;;;;;;;;5075266;28;20422;-77
2023/06/09 01:17:32;;;;;;;30.53;28.53;;;;;;;;;;5075038;28;20440;-78
2023/06/09 01:20:05;;;;;;;28.50;26.70;;;;;;;;;;5074297;28;20466;-77
2023/06/09 01:22:38;;;;;;;29.73;27.73;;;;;;;;;;5074352;28;20982;-77
2023/06/09 01:25:08;;;;;;;28.83;27.03;;;;;;;;;;5074406;28;20488;-77
2023/06/09 01:27:37;;;;;;;30.90;28.87;;;;;;;;;;5074074;28;20452;-77
2023/06/09 01:30:06;;;;;;;31.90;29.37;;;;;;;;;;5074053;28;20960;-77
2023/06/09 01:32:34;;;;;;;29.37;27.67;;;;;;;;;;5074205;28;20461;-78
2023/06/09 01:35:02;;;;;;;29.47;27.20;;;;;;;;;;5075313;28;20424;-76
2023/06/09 01:37:29;;;;;;;29.93;27.93;;;;;;;;;;5078066;28;20453;-76
2023/06/09 01:39:56;;;;;;;30.40;28.20;;;;;;;;;;5073600;28;20510;-77
2023/06/09 01:42:23;;;;;;;29.53;27.50;;;;;;;;;;5074487;28;20417;-76
2023/06/09 01:44:51;;;;;;;29.60;27.80;;;;;;;;;;5074200;28;20453;-77
2023/06/09 01:47:20;;;;;;;30.70;28.73;;;;;;;;;;5073432;28;20445;-76
2023/06/09 01:49:54;;;;;;;30.33;28.37;;;;;;;;;;5075189;28;20469;-77
2023/06/09 01:52:23;;;;;;;28.17;26.40;;;;;;;;;;5073222;28;20448;-76
2023/06/09 01:54:54;;;;;;;29.53;27.63;;;;;;;;;;5073803;28;20897;-77
2023/06/09 01:57:23;;;;;;;30.23;28.23;;;;;;;;;;5073063;28;20468;-77
2023/06/09 01:59:54;;;;;;;31.33;28.50;;;;;;;;;;5074241;28;20529;-77
2023/06/09 02:02:22;;;;;;;29.10;27.20;;;;;;;;;;5073783;28;20440;-77
2023/06/09 02:04:52;;;;;;;30.50;28.50;;;;;;;;;;5073291;28;21299;-77
2023/06/09 02:07:19;;;;;;;29.30;27.50;;;;;;;;;;5072981;28;21003;-77
2023/06/09 02:09:47;;;;;;;30.77;28.67;;;;;;;;;;5074273;28;20468;-77
2023/06/09 02:12:14;;;;;;;30.37;28.37;;;;;;;;;;5073474;28;20458;-76
2023/06/09 02:14:42;;;;;;;30.50;28.60;;;;;;;;;;5073938;28;20972;-76
2023/06/09 02:17:10;;;;;;;31.03;29.03;;;;;;;;;;5073367;28;20933;-76
2023/06/09 02:19:38;;;;;;;30.40;28.50;;;;;;;;;;5074257;28;20485;-76
2023/06/09 02:22:06;;;;;;;30.27;28.40;;;;;;;;;;5075777;28;20556;-76
2023/06/09 02:24:33;;;;;;;30.73;28.83;;;;;;;;;;5073192;28;20917;-77
2023/06/09 02:27:00;;;;;;;31.30;28.90;;;;;;;;;;5073075;28;20484;-77
2023/06/09 02:29:27;;;;;;;29.97;27.97;;;;;;;;;;5072884;28;20536;-77
2023/06/09 02:31:55;;;;;;;29.40;27.50;;;;;;;;;;5073125;28;20528;-76
2023/06/09 02:34:23;;;;;;;31.77;29.50;;;;;;;;;;5074006;28;20451;-77
2023/06/09 02:36:52;;;;;;;29.87;27.90;;;;;;;;;;5073432;28;20515;-77
2023/06/09 02:39:19;;;;;;;28.93;27.13;;;;;;;;;;5077891;28;20497;-76
2023/06/09 02:41:46;;;;;;;30.03;28.10;;;;;;;;;;5077022;28;20449;-77
2023/06/09 02:44:13;;;;;;;29.57;27.67;;;;;;;;;;5077246;28;20448;-77
2023/06/09 02:46:42;;;;;;;29.47;27.67;;;;;;;;;;5077564;28;20453;-76
2023/06/09 02:49:09;;;;;;;29.00;27.20;;;;;;;;;;5076981;28;20506;-76
2023/06/09 02:51:37;;;;;;;30.07;28.07;;;;;;;;;;5076324;28;20487;-76
2023/06/09 02:54:04;;;;;;;29.87;27.80;;;;;;;;;;5077029;28;20448;-76
2023/06/09 02:56:31;;;;;;;31.10;29.13;;;;;;;;;;5076423;28;20483;-76
2023/06/09 02:58:58;;;;;;;30.13;28.20;;;;;;;;;;5076990;28;20852;-76
2023/06/09 03:01:27;;;;;;;31.40;29.10;;;;;;;;;;5077429;28;21015;-76
2023/06/09 03:03:54;;;;;;;30.23;28.17;;;;;;;;;;5076093;28;20497;-77
2023/06/09 03:06:21;;;;;;;29.13;27.03;;;;;;;;;;5076572;28;20490;-77
2023/06/09 03:08:50;;;;;;;31.37;29.27;;;;;;;;;;5076713;28;20479;-75
2023/06/09 03:11:18;;;;;;;28.87;27.03;;;;;;;;;;5075932;28;20826;-74
2023/06/09 03:13:45;;;;;;;28.73;26.70;;;;;;;;;;5076047;28;20455;-74
2023/06/09 03:16:12;;;;;;;29.13;27.33;;;;;;;;;;5075068;28;20483;-74
2023/06/09 03:18:39;;;;;;;29.40;27.23;;;;;;;;;;5075411;28;20444;-75
2023/06/09 03:21:08;;;;;;;29.70;27.80;;;;;;;;;;5075601;28;20493;-75
2023/06/09 03:23:35;;;;;;;29.93;28.03;;;;;;;;;;5076328;28;20465;-74
2023/06/09 03:26:05;;;;;;;29.87;27.97;;;;;;;;;;5075625;28;20445;-76
2023/06/09 03:28:32;;;;;;;30.03;28.03;;;;;;;;;;5075933;28;20452;-75
2023/06/09 03:31:00;;;;;;;29.20;27.33;;;;;;;;;;5076280;28;20511;-75
2023/06/09 03:33:27;;;;;;;28.53;26.73;;;;;;;;;;5076649;28;20805;-75
2023/06/09 03:35:54;;;;;;;29.07;27.33;;;;;;;;;;5075835;28;20514;-75
2023/06/09 03:38:21;;;;;;;27.80;26.10;;;;;;;;;;5076065;28;20941;-75
2023/06/09 03:40:48;;;;;;;29.10;27.23;;;;;;;;;;5075784;28;21016;-74
2023/06/09 03:43:17;;;;;;;28.90;27.00;;;;;;;;;;5075857;28;20457;-75
2023/06/09 03:45:44;;;;;;;29.80;27.87;;;;;;;;;;5075202;28;20498;-75
2023/06/09 03:48:11;;;;;;;30.73;28.43;;;;;;;;;;5075023;28;20449;-75
2023/06/09 03:50:40;;;;;;;27.70;25.90;;;;;;;;;;5075154;28;20515;-75
2023/06/09 03:53:07;;;;;;;27.60;25.80;;;;;;;;;;5075617;28;20452;-74
2023/06/09 03:55:34;;;;;;;28.10;25.93;;;;;;;;;;5075227;28;20499;-75
2023/06/09 03:58:01;;;;;;;28.83;26.80;;;;;;;;;;5077112;28;20820;-75
2023/06/09 04:00:30;;;;;;;28.47;26.67;;;;;;;;;;5075830;28;20533;-74
2023/06/09 04:02:57;;;;;;;28.10;26.27;;;;;;;;;;5075734;28;20424;-77
2023/06/09 04:05:25;;;;;;;28.50;26.47;;;;;;;;;;5075337;28;20419;-75
2023/06/09 04:07:53;;;;;;;31.07;28.90;;;;;;;;;;5075064;28;20499;-75
2023/06/09 04:10:20;;;;;;;27.97;26.07;;;;;;;;;;5075192;28;20799;-75
2023/06/09 04:12:47;;;;;;;27.53;25.90;;;;;;;;;;5075217;28;20490;-74
2023/06/09 04:15:14;;;;;;;27.70;25.90;;;;;;;;;;5075397;28;20470;-75
2023/06/09 04:17:42;;;;;;;28.97;27.10;;;;;;;;;;5074974;28;20452;-74
2023/06/09 04:20:10;;;;;;;29.67;27.70;;;;;;;;;;5074043;28;20520;-75
2023/06/09 04:22:37;;;;;;;28.70;26.80;;;;;;;;;;5074947;28;20453;-74
2023/06/09 04:25:04;;;;;;;29.27;27.10;;;;;;;;;;5075627;28;20453;-74
2023/06/09 04:27:31;;;;;;;28.70;26.90;;;;;;;;;;5074364;28;20507;-75
2023/06/09 04:29:59;;;;;;;27.40;25.70;;;;;;;;;;5074828;28;20446;-75
2023/06/09 04:32:32;;;;;;;27.50;25.80;;;;;;;;;;5074346;28;20469;-74
2023/06/09 04:35:01;;;;;;;27.77;26.07;;;;;;;;;;5074838;28;20467;-75
2023/06/09 04:37:29;;;;;;;26.97;25.33;;;;;;;;;;5077154;28;20478;-74
2023/06/09 04:39:57;;;;;;;27.80;26.10;;;;;;;;;;5090281;28;20561;-74
2023/06/09 04:42:25;;;;;;;28.23;26.40;;;;;;;;;;5094130;28;20476;-75
2023/06/09 04:44:53;;;;;;;28.00;26.10;;;;;;;;;;5084237;28;20513;-75
2023/06/09 04:47:24;;;;;;;28.47;26.67;;;;;;;;;;5079456;28;20464;-75
2023/06/09 04:49:53;;;;;;;26.60;24.90;;;;;;;;;;5074036;28;20504;-75
2023/06/09 04:52:21;;;;;;;26.97;25.20;;;;;;;;;;5074550;28;20449;-76
2023/06/09 04:54:49;;;;;;;27.07;25.37;;;;;;;;;;5091206;28;20453;-75
2023/06/09 04:57:18;;;;;;;27.40;25.80;;;;;;;;;;5074382;28;20471;-76
2023/06/09 04:59:45;;;;;;;27.10;25.30;;;;;;;;;;5074817;28;21083;-76
2023/06/09 05:02:12;;;;;;;28.60;26.80;;;;;;;;;;5073557;28;20462;-77
2023/06/09 05:04:39;;;;;;;27.53;25.87;;;;;;;;;;5079752;28;20833;-76
2023/06/09 05:07:06;;;;;;;26.63;25.03;;;;;;;;;;5076792;28;20487;-75
2023/06/09 05:09:35;;;;;;;26.87;25.00;;;;;;;;;;5078818;28;20440;-76
2023/06/09 05:12:02;;;;;;;26.97;25.27;;;;;;;;;;5076303;28;20444;-75
2023/06/09 05:14:29;;;;;;;27.47;25.70;;;;;;;;;;5076260;28;20531;-75
2023/06/09 05:16:56;;;;;;;26.80;25.10;;;;;;;;;;5074018;28;21026;-75
2023/06/09 05:19:23;;;;;;;27.27;25.47;;;;;;;;;;5074145;28;20419;-74
2023/06/09 05:21:50;;;;;;;26.90;25.30;;;;;;;;;;5074898;28;20462;-74
2023/06/09 05:24:17;;;;;;;26.07;24.30;;;;;;;;;;5074575;28;20430;-74
2023/06/09 05:26:45;;;;;;;27.33;25.50;;;;;;;;;;5072989;28;20431;-75
2023/06/09 05:29:12;;;;;;;28.17;26.37;;;;;;;;;;5073675;28;20475;-76
2023/06/09 05:31:39;;;;;;;28.07;25.73;;;;;;;;;;5074251;28;20480;-74
2023/06/09 05:34:06;;;;;;;27.30;25.67;;;;;;;;;;5076291;28;20489;-74
2023/06/09 05:36:34;;;;;;;27.47;25.77;;;;;;;;;;5074211;28;20449;-76
2023/06/09 05:39:01;;;;;;;26.87;25.27;;;;;;;;;;5073895;28;20465;-74
2023/06/09 05:41:28;;;;;;;28.70;27.00;;;;;;;;;;5072799;28;20462;-75
2023/06/09 05:43:57;;;;;;;28.17;26.47;;;;;;;;;;5074564;28;20450;-74
2023/06/09 05:46:25;;;;;;;28.30;26.50;;;;;;;;;;5073393;28;20500;-75
2023/06/09 05:48:52;;;;;;;26.00;24.40;;;;;;;;;;5075806;28;20536;-74
2023/06/09 05:51:19;;;;;;;27.80;25.90;;;;;;;;;;5077565;28;20468;-74
2023/06/09 05:53:46;;;;;;;28.57;26.80;;;;;;;;;;5077370;28;20453;-75
2023/06/09 05:56:16;;;;;;;29.63;27.50;;;;;;;;;;5074410;28;20522;-74
2023/06/09 05:58:44;;;;;;;28.67;26.97;;;;;;;;;;5074306;28;20452;-74
2023/06/09 06:01:13;;;;;;;27.23;25.63;;;;;;;;;;5073585;28;20584;-75
2023/06/09 06:03:41;;;;;;;26.50;24.87;;;;;;;;;;5079317;28;20851;-75
2023/06/09 06:06:10;;;;;;;27.17;25.47;;;;;;;;;;5076453;28;20460;-74
2023/06/09 06:08:42;;;;;;;26.93;25.10;;;;;;;;;;5075759;28;20457;-80
2023/06/09 06:11:09;;;;;;;26.80;25.30;;;;;;;;;;5075040;28;20846;-81
2023/06/09 06:13:36;;;;;;;27.53;25.67;;;;;;;;;;5076446;28;20453;-81
2023/06/09 06:16:03;;;;;;;26.90;25.03;;;;;;;;;;5075853;28;20907;-82
2023/06/09 06:18:32;;;;;;;26.97;25.30;;;;;;;;;;5075006;28;20440;-83
2023/06/09 06:20:59;;;;;;;26.87;25.17;;;;;;;;;;5076213;28;20870;-83
2023/06/09 06:23:26;;;;;;;27.40;25.60;;;;;;;;;;5074555;28;20515;-75
2023/06/09 06:25:53;;;;;;;27.73;25.87;;;;;;;;;;5072378;28;20478;-74
2023/06/09 06:28:20;;;;;;;27.90;26.00;;;;;;;;;;5073006;28;20432;-75
2023/06/09 06:30:47;;;;;;;28.73;26.83;;;;;;;;;;5072405;28;20452;-74
2023/06/09 06:33:15;;;;;;;28.80;27.00;;;;;;;;;;5073383;28;20423;-78
2023/06/09 06:35:43;;;;;;;27.50;25.63;;;;;;;;;;5073726;28;20405;-76
2023/06/09 06:38:12;;;;;;;27.67;25.97;;;;;;;;;;5073094;28;20424;-88
2023/06/09 06:40:39;;;;;;;26.70;24.97;;;;;;;;;;5066009;28;20449;-88
2023/06/09 06:43:06;;;;;;;26.37;24.77;;;;;;;;;;5062798;28;20497;-87
2023/06/09 06:45:32;;;;;;;28.27;26.43;;;;;;;;;;5059756;28;20429;-77
2023/06/09 06:48:00;;;;;;;27.30;25.60;;;;;;;;;;5054191;28;20432;-78
2023/06/09 06:50:27;;;;;;;27.57;25.87;;;;;;;;;;5053459;28;20490;-77
2023/06/09 06:52:55;;;;;;;28.73;26.80;;;;;;;;;;5054026;28;20422;-78
2023/06/09 06:55:22;;;;;;;28.00;26.20;;;;;;;;;;5068599;28;20496;-79
2023/06/09 06:57:49;;;;;;;29.20;27.30;;;;;;;;;;5073723;28;20507;-77
2023/06/09 07:00:17;;;;;;;27.60;25.90;;;;;;;;;;5072687;28;20448;-78
2023/06/09 07:02:46;;;;;;;28.60;26.57;;;;;;;;;;5072436;28;20412;-77
2023/06/09 07:05:13;;;;;;;27.37;25.70;;;;;;;;;;5073741;28;20478;-75
2023/06/09 07:07:40;;;;;;;27.87;26.10;;;;;;;;;;5072816;28;20404;-77
2023/06/09 07:10:09;;;;;;;29.30;27.23;;;;;;;;;;5073332;28;20437;-77
2023/06/09 07:12:36;;;;;;;28.77;26.87;;;;;;;;;;5073593;28;20499;-80
2023/06/09 07:15:03;;;;;;;28.87;26.77;;;;;;;;;;5074236;28;20859;-76
2023/06/09 07:17:30;;;;;;;30.57;28.67;;;;;;;;;;5072600;28;20428;-77
2023/06/09 07:19:57;;;;;;;29.37;27.47;;;;;;;;;;5072124;28;20448;-78
2023/06/09 07:22:24;;;;;;;29.70;28.00;;;;;;;;;;5073932;28;20848;-77
2023/06/09 07:24:51;;;;;;;29.27;27.47;;;;;;;;;;5076829;28;20420;-77
2023/06/09 07:27:19;;;;;;;30.20;28.30;;;;;;;;;;5076079;28;20499;-77
2023/06/09 07:29:46;;;;;;;29.10;27.30;;;;;;;;;;5076097;28;20978;-78
2023/06/09 07:32:13;;;;;;;28.40;26.70;;;;;;;;;;5075923;28;20485;-78
2023/06/09 07:34:40;;;;;;;28.00;26.30;;;;;;;;;;5076588;28;20493;-78
2023/06/09 07:37:07;;;;;;;29.63;27.73;;;;;;;;;;5075951;28;20454;-77
2023/06/09 07:39:36;;;;;;;29.70;27.73;;;;;;;;;;5076565;28;20476;-77
2023/06/09 07:42:03;;;;;;;28.00;26.30;;;;;;;;;;5076708;28;20502;-78
2023/06/09 07:44:31;;;;;;;28.23;26.47;;;;;;;;;;5076995;28;20473;-78
2023/06/09 07:46:58;;;;;;;29.03;27.10;;;;;;;;;;5076277;28;20511;-78
2023/06/09 07:49:26;;;;;;;29.10;27.20;;;;;;;;;;5075956;28;20795;-78
2023/06/09 07:51:53;;;;;;;28.60;26.87;;;;;;;;;;5076053;28;20871;-78
2023/06/09 07:54:21;;;;;;;28.43;26.73;;;;;;;;;;5076075;28;20441;-77
2023/06/09 07:56:49;;;;;;;28.83;27.00;;;;;;;;;;5075687;28;20428;-77
2023/06/09 07:59:16;;;;;;;28.37;26.57;;;;;;;;;;5075957;28;20465;-77
2023/06/09 08:01:46;;;;;;;29.63;27.80;;;;;;;;;;5077324;28;20494;-78
2023/06/09 08:04:13;;;;;;;27.67;26.07;;;;;;;;;;5079345;28;20494;-78
2023/06/09 08:06:40;;;;;;;29.00;27.20;;;;;;;;;;5076738;28;20848;-78
2023/06/09 08:09:08;;;;;;;28.53;26.70;;;;;;;;;;5078223;28;20963;-78
2023/06/09 08:11:35;;;;;;;29.87;27.83;;;;;;;;;;5076939;28;20569;-79
2023/06/09 08:14:03;;;;;;;30.30;28.20;;;;;;;;;;5077657;28;20852;-79
2023/06/09 08:16:30;;;;;;;29.37;27.57;;;;;;;;;;5077752;28;20420;-79
2023/06/09 08:18:58;;;;;;;29.50;27.60;;;;;;;;;;5079483;28;20435;-81
2023/06/09 08:21:25;;;;;;;28.83;26.93;;;;;;;;;;5075522;28;20991;-78
2023/06/09 08:23:52;;;;;;;29.93;28.00;;;;;;;;;;5078024;28;20503;-78
2023/06/09 08:26:19;;;;;;;29.30;27.40;;;;;;;;;;5076920;28;20428;-79
2023/06/09 08:28:47;;;;;;;29.27;27.47;;;;;;;;;;5077845;28;20818;-78
2023/06/09 08:31:15;;;;;;;30.33;28.33;;;;;;;;;;5077793;28;20512;-79
2023/06/09 08:33:42;;;;;;;28.60;26.80;;;;;;;;;;5078338;28;20420;-78
2023/06/09 08:36:12;;;;;;;29.20;27.13;;;;;;;;;;5079162;28;20455;-78
2023/06/09 08:38:39;;;;;;;29.77;27.63;;;;;;;;;;5079019;28;20439;-77
2023/06/09 08:41:08;;;;;;;28.90;27.13;;;;;;;;;;5077381;28;20489;-78
2023/06/09 08:43:35;;;;;;;30.30;28.40;;;;;;;;;;5077868;28;20412;-78
2023/06/09 08:46:04;;;;;;;29.70;27.80;;;;;;;;;;5078757;28;20996;-79
2023/06/09 08:48:32;;;;;;;29.70;27.70;;;;;;;;;;5078503;28;20855;-77
2023/06/09 08:51:00;;;;;;;29.97;27.90;;;;;;;;;;5079268;28;20463;-78
2023/06/09 08:53:29;;;;;;;30.97;28.83;;;;;;;;;;5079739;28;20438;-79
2023/06/09 08:55:56;;;;;;;28.93;26.90;;;;;;;;;;5079884;28;20455;-77
2023/06/09 08:58:23;;;;;;;29.10;27.20;;;;;;;;;;5080507;28;20428;-78
2023/06/09 09:00:51;;;;;;;29.87;27.87;;;;;;;;;;5077808;28;20482;-79
2023/06/09 09:03:19;;;;;;;29.57;27.60;;;;;;;;;;5077651;28;20464;-79
2023/06/09 09:05:46;;;;;;;29.37;27.47;;;;;;;;;;5075441;28;20454;-77
2023/06/09 09:08:15;;;;;;;30.03;27.80;;;;;;;;;;5075578;28;20926;-81
2023/06/09 09:10:45;;;;;;;29.63;27.60;;;;;;;;;;5075317;28;20440;-77
2023/06/09 09:13:12;;;;;;;28.37;26.30;;;;;;;;;;5075202;28;20503;-76
2023/06/09 09:15:47;;;;;;;29.20;27.30;;;;;;;;;;5074469;28;20583;-78
2023/06/09 09:18:14;;;;;;;29.60;27.50;;;;;;;;;;5075112;28;20430;-78
2023/06/09 09:20:42;;;;;;;30.00;28.00;;;;;;;;;;5074984;28;20455;-78
2023/06/09 09:23:10;;;;;;;28.53;26.63;;;;;;;;;;5075285;28;20452;-78
2023/06/09 09:25:37;;;;;;;29.80;27.60;;;;;;;;;;5074659;28;20420;-77
2023/06/09 09:28:06;;;;;;;28.30;26.40;;;;;;;;;;5075113;28;20450;-78
2023/06/09 09:30:43;;;;;;;29.20;27.30;;;;;;;;;;5074415;28;20845;-78
2023/06/09 09:33:10;;;;;;;29.23;27.33;;;;;;;;;;5074162;28;20445;-79
2023/06/09 09:35:38;;;;;;;30.30;28.30;;;;;;;;;;5074405;28;20470;-79
2023/06/09 09:38:05;;;;;;;29.00;27.03;;;;;;;;;;5074610;28;20595;-78
2023/06/09 09:40:32;;;;;;;28.73;26.93;;;;;;;;;;5075095;28;20441;-77
2023/06/09 09:43:02;;;;;;;28.00;26.30;;;;;;;;;;5075154;28;20964;-77
2023/06/09 09:45:37;;;;;;;29.70;27.70;;;;;;;;;;5074354;28;20449;-77
2023/06/09 09:48:09;;;;;;;28.90;26.80;;;;;;;;;;5075075;28;20423;-77
2023/06/09 09:50:37;;;;;;;29.27;27.27;;;;;;;;;;5075561;28;20882;-77
2023/06/09 09:53:04;;;;;;;28.83;27.03;;;;;;;;;;5079630;28;20477;-77
2023/06/09 09:55:32;;;;;;;28.27;26.40;;;;;;;;;;5082204;28;20901;-77
2023/06/09 09:57:59;;;;;;;29.83;27.83;;;;;;;;;;5087595;28;20453;-76
2023/06/09 10:00:27;;;;;;;28.07;26.37;;;;;;;;;;5080842;28;20452;-77
2023/06/09 10:02:59;;;;;;;27.67;25.60;;;;;;;;;;5078121;28;20483;-76
2023/06/09 10:05:27;;;;;;;28.23;26.43;;;;;;;;;;5077427;28;20502;-77
2023/06/09 10:07:57;;;;;;;27.77;25.97;;;;;;;;;;5079472;28;20453;-78
2023/06/09 10:10:24;;;;;;;29.33;27.37;;;;;;;;;;5078096;28;20874;-78
2023/06/09 10:12:52;;;;;;;28.83;27.03;;;;;;;;;;5079132;28;20500;-79
2023/06/09 10:15:20;;;;;;;29.33;27.43;;;;;;;;;;5078422;28;20446;-79
2023/06/09 10:17:49;;;;;;;28.87;27.10;;;;;;;;;;5080613;28;20427;-79
2023/06/09 10:20:17;;;;;;;29.33;27.37;;;;;;;;;;5076780;28;20483;-79
2023/06/09 10:22:45;;;;;;;29.00;27.10;;;;;;;;;;5077910;28;20863;-79
2023/06/09 10:25:13;;;;;;;29.80;27.90;;;;;;;;;;5078263;28;20500;-79
2023/06/09 10:27:40;;;;;;;31.33;29.33;;;;;;;;;;5078245;28;20440;-79
2023/06/09 10:30:08;;;;;;;29.60;27.73;;;;;;;;;;5081271;28;20512;-78
2023/06/09 10:32:37;;;;;;;28.73;26.73;;;;;;;;;;5079751;28;20465;-79
2023/06/09 10:35:05;;;;;;;27.07;25.27;;;;;;;;;;5080022;28;20989;-79
2023/06/09 10:37:40;;;;;;;26.90;25.20;;;;;;;;;;5080107;28;20500;-78
2023/06/09 10:40:09;;;;;;;28.00;26.10;;;;;;;;;;5080785;28;20451;-85
2023/06/09 10:42:41;;;;;;;26.20;24.50;;;;;;;;;;5081251;28;20478;-82
2023/06/09 10:45:10;;;;;;;28.07;25.70;;;;;;;;;;5077782;28;20812;-79
2023/06/09 10:47:44;;;;;;;27.47;25.67;;;;;;;;;;5076964;28;20430;-78
2023/06/09 10:50:24;;;;;;;28.40;26.67;;;;;;;;;;5080131;28;20520;-79
2023/06/09 10:52:56;;;;;;;29.40;27.50;;;;;;;;;;5077920;28;20420;-79
2023/06/09 10:55:24;;;;;;;28.93;27.03;;;;;;;;;;5081960;28;20429;-79
2023/06/09 10:57:52;;;;;;;28.70;26.80;;;;;;;;;;5081399;28;20439;-78
2023/06/09 11:00:19;;;;;;;29.67;27.67;;;;;;;;;;5088066;28;20482;-78
2023/06/09 11:02:50;;;;;;;29.63;27.53;;;;;;;;;;5086158;28;20820;-81
2023/06/09 11:05:17;;;;;;;28.90;27.10;;;;;;;;;;5082957;28;20779;-81
2023/06/09 11:07:46;;;;;;;28.73;26.83;;;;;;;;;;5080986;28;20425;-82
2023/06/09 11:10:28;;;;;;;31.03;28.00;;;;;;;;;;5080752;28;20814;-82
2023/06/09 11:12:56;;;;;;;28.53;26.73;;;;;;;;;;5086596;28;20412;-78
2023/06/09 11:15:24;;;;;;;29.67;27.57;;;;;;;;;;5096267;28;20456;-79
2023/06/09 11:17:51;;;;;;;29.13;27.10;;;;;;;;;;5087074;28;20818;-80
2023/06/09 11:20:19;;;;;;;29.70;27.87;;;;;;;;;;5080929;28;20456;-79
2023/06/09 11:23:03;;;;;;;29.47;27.47;;;;;;;;;;5089727;28;20453;-78
2023/06/09 11:25:40;;;;;;;28.77;26.77;;;;;;;;;;5096527;28;20429;-78
2023/06/09 11:28:21;;;;;;;29.77;27.87;;;;;;;;;;5097772;28;20445;-80
2023/06/09 11:31:02;;;;;;;28.33;26.43;;;;;;;;;;5096383;28;20451;-77
2023/06/09 11:33:57;;;;;;;27.40;25.60;;;;;;;;;;5094115;28;20408;-83
2023/06/09 11:36:27;;;;;;;29.90;28.00;;;;;;;;;;5060782;28;20442;-79
2023/06/09 11:38:57;;;;;;;29.13;27.33;;;;;;;;;;5095882;28;20517;-85
2023/06/09 11:41:27;;;;;;;27.87;26.07;;;;;;;;;;5096098;28;20443;-76
2023/06/09 11:43:55;;;;;;;29.23;27.30;;;;;;;;;;5092140;28;20607;-77
2023/06/09 11:46:23;;;;;;;28.73;26.83;;;;;;;;;;5091064;28;20463;-77
2023/06/09 11:49:04;;;;;;;29.67;27.77;;;;;;;;;;5089490;28;20420;-77
2023/06/09 11:51:31;;;;;;;28.50;26.70;;;;;;;;;;5092948;28;20479;-76
2023/06/09 11:53:58;;;;;;;27.77;25.97;;;;;;;;;;5092112;28;20446;-76
2023/06/09 11:56:27;;;;;;;28.80;27.00;;;;;;;;;;5092327;28;20499;-76
2023/06/09 11:58:55;;;;;;;28.67;26.70;;;;;;;;;;5093972;28;20476;-77
2023/06/09 12:01:24;;;;;;;29.53;27.73;;;;;;;;;;5091693;28;21036;-76
2023/06/09 12:03:51;;;;;;;28.70;26.90;;;;;;;;;;5089056;28;20487;-75
2023/06/09 12:06:18;;;;;;;30.13;28.10;;;;;;;;;;5092300;28;20443;-83
2023/06/09 12:08:46;;;;;;;28.90;27.00;;;;;;;;;;5091428;28;20436;-76
2023/06/09 12:11:17;;;;;;;29.47;27.60;;;;;;;;;;5094193;28;20440;-76
2023/06/09 12:13:49;;;;;;;28.60;26.90;;;;;;;;;;5094490;28;20422;-76
2023/06/09 12:16:17;;;;;;;29.50;27.70;;;;;;;;;;5095502;28;20412;-77
2023/06/09 12:18:44;;;;;;;28.90;27.13;;;;;;;;;;5096110;28;20456;-76
2023/06/09 12:21:13;;;;;;;30.27;28.33;;;;;;;;;;5092913;28;20680;-76
2023/06/09 12:23:40;;;;;;;30.10;28.10;;;;;;;;;;5089880;28;21126;-76
2023/06/09 12:26:08;;;;;;;29.00;27.10;;;;;;;;;;5090015;28;20451;-76
2023/06/09 12:28:35;;;;;;;29.33;27.43;;;;;;;;;;5088819;28;20477;-76
2023/06/09 12:31:10;;;;;;;29.80;27.83;;;;;;;;;;5086369;28;20441;-76
2023/06/09 12:33:38;;;;;;;30.07;28.07;;;;;;;;;;5083601;28;20453;-76
2023/06/09 12:36:06;;;;;;;28.70;26.80;;;;;;;;;;5092502;28;20447;-77
2023/06/09 12:38:36;;;;;;;30.00;28.30;;;;;;;;;;5095972;28;20445;-76
2023/06/09 12:41:10;;;;;;;27.63;26.03;;;;;;;;;;5095511;28;20436;-76
2023/06/09 12:43:44;;;;;;;29.23;27.13;;;;;;;;;;5091008;28;20457;-75
2023/06/09 12:46:13;;;;;;;29.40;27.50;;;;;;;;;;5079630;28;20446;-76
2023/06/09 12:48:55;;;;;;;29.77;27.87;;;;;;;;;;5084018;28;20470;-77
2023/06/09 12:51:22;;;;;;;28.80;26.90;;;;;;;;;;5082076;28;20477;-76
2023/06/09 12:53:50;;;;;;;29.33;27.33;;;;;;;;;;5079000;28;20419;-76
2023/06/09 12:56:17;;;;;;;29.43;27.43;;;;;;;;;;5081814;28;20446;-79
2023/06/09 12:58:45;;;;;;;29.30;27.00;;;;;;;;;;5082412;28;20424;-77
2023/06/09 13:01:14;;;;;;;28.70;26.90;;;;;;;;;;5080875;28;20440;-76
2023/06/09 13:03:41;;;;;;;28.47;26.60;;;;;;;;;;5083006;28;20444;-84
2023/06/09 13:06:08;;;;;;;30.27;28.10;;;;;;;;;;5079477;28;20433;-79
2023/06/09 13:08:35;;;;;;;29.63;27.43;;;;;;;;;;5081682;28;20432;-76
2023/06/09 13:11:02;;;;;;;29.57;27.77;;;;;;;;;;5080906;28;20473;-75
2023/06/09 13:13:30;;;;;;;29.60;27.70;;;;;;;;;;5081706;28;20448;-76
2023/06/09 13:15:57;;;;;;;29.87;28.00;;;;;;;;;;5076576;28;20983;-75
2023/06/09 13:18:25;;;;;;;29.80;27.37;;;;;;;;;;5075172;28;20482;-75
2023/06/09 13:20:53;;;;;;;29.60;27.60;;;;;;;;;;5075319;28;20506;-74
2023/06/09 13:23:20;;;;;;;28.80;27.00;;;;;;;;;;5076686;28;20452;-75
2023/06/09 13:25:47;;;;;;;29.47;27.57;;;;;;;;;;5077966;28;20494;-75
2023/06/09 13:28:15;;;;;;;29.57;27.47;;;;;;;;;;5079306;28;20421;-75
2023/06/09 13:30:42;;;;;;;29.40;27.40;;;;;;;;;;5078272;28;20473;-77
2023/06/09 13:33:10;;;;;;;28.70;26.90;;;;;;;;;;5079659;28;20506;-75
2023/06/09 13:35:41;;;;;;;29.00;27.00;;;;;;;;;;5080912;28;20446;-82
2023/06/09 13:38:08;;;;;;;29.07;27.17;;;;;;;;;;5061356;28;20453;-82
2023/06/09 13:40:36;;;;;;;29.83;27.83;;;;;;;;;;5061133;28;20496;-76
2023/06/09 13:43:03;;;;;;;30.13;27.97;;;;;;;;;;5058727;28;20489;-75
2023/06/09 13:45:30;;;;;;;28.47;26.67;;;;;;;;;;5059685;28;20463;-75
2023/06/09 13:47:57;;;;;;;28.60;26.80;;;;;;;;;;5060187;28;20433;-76
2023/06/09 13:50:24;;;;;;;29.93;27.70;;;;;;;;;;5060793;28;20533;-78
2023/06/09 13:52:53;;;;;;;28.20;26.10;;;;;;;;;;5060608;28;20498;-77
2023/06/09 13:55:20;;;;;;;27.67;25.87;;;;;;;;;;5059607;28;20445;-78
2023/06/09 13:57:47;;;;;;;28.40;26.60;;;;;;;;;;5061305;28;20845;-81
2023/06/09 14:00:14;;;;;;;27.97;26.03;;;;;;;;;;5058349;28;20467;-74
2023/06/09 14:02:42;;;;;;;29.67;27.77;;;;;;;;;;5058498;28;20506;-76
2023/06/09 14:05:10;;;;;;;28.17;26.30;;;;;;;;;;5058207;28;20498;-75
2023/06/09 14:07:37;;;;;;;29.23;27.23;;;;;;;;;;5055502;28;20802;-74
2023/06/09 14:10:06;;;;;;;29.50;27.30;;;;;;;;;;5055406;28;20470;-74
2023/06/09 14:12:33;;;;;;;30.17;28.00;;;;;;;;;;5055806;28;20425;-75
2023/06/09 14:15:00;;;;;;;29.50;27.40;;;;;;;;;;5056737;28;20429;-75
2023/06/09 14:17:27;;;;;;;29.07;27.10;;;;;;;;;;5059149;28;20831;-75
2023/06/09 14:19:55;;;;;;;29.50;27.60;;;;;;;;;;5056538;28;20468;-76
2023/06/09 14:22:22;;;;;;;30.30;28.10;;;;;;;;;;5055118;28;20505;-75